Belgium, WI (53004)

02:52 AM CDT die 01o September, anno 2015 (GMT -0500)
Fredonia | | Change Station
CLOSE
Current Station
Personal Weather Stations
Location: Fredonia, WI
Elevation: 833 ft
Nearby Weather Stations

Elev 833 ft 43.47 °N, 87.95 °W | Updated 8 minutes ago

Caligo
Caligo
64.8 °F
Feels Like 64.8 °F
N
0.0
Ventus Variabilis Ventus from Inter Aquilonem et Eurum
Gusts 1.0 mph

Hodie
High -- | Low -- °F
--% Chance of Precip.
Yesterday
High -- | Low -- °F
Precip. -- in
6:15 AM 7:27 PM
Waning Gibbous, 90% visible
Pressio 30.03 in
Visibilitas 0.8 milia passuum
Clouds
Frigus in quo Ros apparet 64 °F
Umor 98%
Rainfall 0.00 in
Snow Depth Not available.
UV Not available.
Pollen 9.30 out of 12
Air Quality Not available.
Flu Activity Not available.
METAR KETB 010735Z AUTO 00000KT 3/4SM BR VV005 17/17 A3003 RMK AO2 VIS 1/4V5
Pressio 30.03 in
Visibilitas 0.8 milia passuum
Clouds
Frigus in quo Ros apparet 64 °F
Umor 98%
Rainfall 0.00 in
Snow Depth Not available.
UV Not available.
Pollen 9.30 out of 12
Air Quality Not available.
Flu Activity Not available.
METAR KETB 010735Z AUTO 00000KT 3/4SM BR VV005 17/17 A3003 RMK AO2 VIS 1/4V5

10-Day Weather Forecast

×

Almanac

Astronomy

Sep. 01, 2015 Rise Set
Actual Time
Civil Twilight
Nautical Twilight
Astronomical Twilight
Moon
Length Of Visible Light
Length of Day
Tomorrow will be .
, % of the Moon is Illuminated

Today's Extremes

State Highs State Lows

Community

WunderPhotos

Upload Photos

1,851,488 photos uploaded!

WunderBlogs® & News

Nearby

Air Quality

  Air Quality AQ Index Pollutant
Not available.

Snow Depth

Station Depth Elevation

Earthquake Activity

City Distance Mag. Time & Date
Minimum magnitude displayed is 2.5.

Coastal Water Temperatures

Locus Calor

Stations

Nearby Weather Stations

Station Location Temp Frigus Venti Frigus in quo Ros apparet Umor Ventus Precip. Elev Renovata Type